Time;durP1;ratioP1;P1;durP2;ratioP2;P2;SDS_P1;SDS_P2;PMS_P1;PMS_P2;Temp;Humidity;BMP_temperature;BMP_pressure;BME280_temperature;BME280_humidity;BME280_pressure;Samples;Min_cycle;Max_cycle;Signal;HPM_P1;HPM_P2
2022/12/05 00:01:27;;;;;;;7.40;4.85;;;20.00;40.30;;;;;;5010385;28;20057;-61
2022/12/05 00:03:57;;;;;;;5.47;4.57;;;20.00;40.30;;;;;;5030477;28;20050;-60
2022/12/05 00:06:26;;;;;;;7.38;4.93;;;19.90;40.30;;;;;;5029799;28;20485;-60
2022/12/05 00:08:54;;;;;;;6.00;4.80;;;19.90;40.30;;;;;;5030034;28;20414;-60
2022/12/05 00:11:24;;;;;;;7.53;5.13;;;19.90;40.30;;;;;;5030084;28;20088;-61
2022/12/05 00:13:54;;;;;;;5.88;4.65;;;19.90;40.30;;;;;;5030439;28;20046;-61
2022/12/05 00:16:24;;;;;;;5.55;4.18;;;19.90;40.50;;;;;;5029104;28;20153;-61
2022/12/05 00:18:51;;;;;;;5.78;5.13;;;19.90;40.30;;;;;;5030004;28;20128;-61
2022/12/05 00:21:21;;;;;;;6.43;5.32;;;20.00;40.30;;;;;;5030336;28;20075;-61
2022/12/05 00:23:49;;;;;;;5.85;4.15;;;19.90;40.30;;;;;;5029618;28;20037;-61
2022/12/05 00:26:16;;;;;;;6.45;4.75;;;19.90;40.30;;;;;;5029733;28;20056;-61
2022/12/05 00:28:44;;;;;;;6.38;4.78;;;19.90;40.30;;;;;;5029622;28;20049;-61
2022/12/05 00:31:15;;;;;;;5.30;4.50;;;19.90;40.40;;;;;;5028939;28;20516;-61
2022/12/05 00:33:43;;;;;;;6.53;4.78;;;19.90;40.40;;;;;;5029074;28;20482;-61
2022/12/05 00:36:17;;;;;;;6.40;4.63;;;19.90;41.00;;;;;;5026402;28;20055;-61
2022/12/05 00:38:44;;;;;;;5.53;4.63;;;19.90;40.50;;;;;;5029022;28;20045;-61
2022/12/05 00:41:14;;;;;;;6.68;5.15;;;19.90;40.50;;;;;;5028562;28;20056;-61
2022/12/05 00:43:42;;;;;;;6.47;4.55;;;19.90;40.50;;;;;;5029962;28;20084;-61
2022/12/05 00:46:23;;;;;;;5.80;4.97;;;19.90;40.50;;;;;;5028581;28;20105;-61
2022/12/05 00:48:52;;;;;;;6.57;5.05;;;19.90;40.50;;;;;;5029209;28;20046;-61
2022/12/05 00:51:22;;;;;;;6.95;4.97;;;19.90;40.60;;;;;;5029617;28;20052;-61
2022/12/05 00:53:49;;;;;;;6.70;5.07;;;19.90;40.50;;;;;;5029271;28;20482;-61
2022/12/05 00:56:20;;;;;;;6.97;5.15;;;19.90;40.50;;;;;;5029430;28;20046;-61
2022/12/05 00:58:50;;;;;;;6.82;5.15;;;19.90;40.40;;;;;;5028154;28;20049;-61
2022/12/05 01:01:21;;;;;;;6.75;4.85;;;19.90;40.40;;;;;;5029725;28;20418;-61
2022/12/05 01:03:51;;;;;;;6.07;4.93;;;20.00;40.40;;;;;;5029719;28;20136;-61
2022/12/05 01:06:20;;;;;;;6.13;5.13;;;19.90;40.40;;;;;;5029631;28;20049;-61
2022/12/05 01:08:48;;;;;;;7.32;5.05;;;20.00;40.50;;;;;;5029753;28;20045;-61
2022/12/05 01:11:17;;;;;;;6.18;4.90;;;20.00;40.40;;;;;;5024802;28;20049;-61
2022/12/05 01:13:45;;;;;;;7.35;5.22;;;19.90;40.40;;;;;;5029626;28;20045;-61
2022/12/05 01:16:21;;;;;;;6.65;4.88;;;20.00;40.40;;;;;;5029311;28;20053;-61
2022/12/05 01:18:50;;;;;;;6.68;5.43;;;19.90;40.40;;;;;;5028637;28;20089;-61
2022/12/05 01:21:17;;;;;;;6.78;5.05;;;20.00;40.40;;;;;;5029133;28;20049;-61
2022/12/05 01:23:45;;;;;;;7.53;5.50;;;20.00;40.40;;;;;;5028841;28;20056;-61
2022/12/05 01:26:14;;;;;;;6.97;5.00;;;19.90;40.40;;;;;;5029340;28;20390;-62
2022/12/05 01:28:41;;;;;;;8.02;5.70;;;19.90;40.40;;;;;;5028695;28;20042;-61
2022/12/05 01:31:23;;;;;;;7.55;4.70;;;19.90;40.90;;;;;;5029331;28;20057;-60
2022/12/05 01:33:52;;;;;;;6.70;5.28;;;19.90;40.40;;;;;;5029035;28;20132;-61
2022/12/05 01:36:21;;;;;;;7.28;5.40;;;19.90;40.40;;;;;;5029037;28;20052;-61
2022/12/05 01:38:48;;;;;;;6.65;5.53;;;19.90;40.40;;;;;;5029062;28;20405;-61
2022/12/05 01:41:18;;;;;;;6.68;5.43;;;19.90;40.40;;;;;;5030490;28;20076;-62
2022/12/05 01:44:06;;;;;;;6.53;5.43;;;19.90;40.40;;;;;;5031319;28;20052;-60
2022/12/05 01:46:43;;;;;;;6.57;5.18;;;19.90;40.40;;;;;;5031693;28;20498;-61
2022/12/05 01:49:15;;;;;;;6.80;5.55;;;19.90;40.40;;;;;;5031845;28;20061;-61
2022/12/05 01:51:46;;;;;;;7.72;5.50;;;19.90;40.40;;;;;;5032869;28;20050;-61
2022/12/05 01:54:15;;;;;;;7.10;5.28;;;19.90;40.40;;;;;;5031576;28;20052;-61
2022/12/05 01:56:48;;;;;;;6.07;5.00;;;19.90;40.40;;;;;;5032460;28;20494;-61
2022/12/05 01:59:17;;;;;;;6.85;5.45;;;19.90;40.40;;;;;;5032742;28;20056;-61
2022/12/05 02:01:44;;;;;;;6.20;4.65;;;19.90;40.40;;;;;;5033183;28;20045;-61
2022/12/05 02:04:12;;;;;;;8.07;4.90;;;19.90;40.50;;;;;;5032684;28;20053;-61
2022/12/05 02:06:40;;;;;;;7.68;5.53;;;19.90;40.50;;;;;;5032362;28;20055;-61
2022/12/05 02:09:07;;;;;;;7.10;5.03;;;19.90;40.50;;;;;;5032104;28;20053;-61
2022/12/05 02:11:40;;;;;;;9.00;5.70;;;19.90;40.40;;;;;;5032821;28;20060;-61
2022/12/05 02:14:43;;;;;;;6.93;5.30;;;19.90;40.50;;;;;;5032386;28;20049;-61
2022/12/05 02:17:51;;;;;;;6.07;4.78;;;19.90;40.50;;;;;;5030841;28;20053;-60
2022/12/05 02:20:40;;;;;;;7.88;5.85;;;19.90;40.50;;;;;;5032769;28;20068;-61
2022/12/05 02:23:39;;;;;;;7.00;5.18;;;19.90;40.50;;;;;;5027864;28;20045;-61
2022/12/05 02:26:45;;;;;;;6.85;5.45;;;19.90;40.50;;;;;;5032177;28;20060;-61
2022/12/05 02:29:47;;;;;;;6.65;5.05;;;19.90;40.50;;;;;;5031936;28;20052;-61
2022/12/05 02:32:40;;;;;;;7.55;5.03;;;19.90;40.50;;;;;;5032079;28;20064;-60
2022/12/05 02:35:33;;;;;;;8.43;5.45;;;19.90;40.50;;;;;;5032134;28;20045;-61
2022/12/05 02:38:27;;;;;;;8.02;5.65;;;19.90;40.50;;;;;;5030734;28;20049;-61
2022/12/05 02:41:33;;;;;;;7.35;5.07;;;19.90;40.50;;;;;;5031945;28;20053;-61
2022/12/05 02:44:06;;;;;;;6.97;5.40;;;19.90;40.50;;;;;;5031848;28;20509;-61
2022/12/05 02:46:38;;;;;;;5.53;4.93;;;19.90;40.60;;;;;;5032073;28;20095;-61
2022/12/05 02:49:09;;;;;;;6.35;5.28;;;19.90;40.60;;;;;;5030920;28;20053;-61
2022/12/05 02:51:45;;;;;;;5.60;4.60;;;19.80;40.50;;;;;;5030419;28;20053;-61
2022/12/05 02:54:18;;;;;;;6.70;4.80;;;19.90;40.70;;;;;;5008330;28;20545;-61
2022/12/05 02:56:47;;;;;;;7.15;5.05;;;19.80;40.70;;;;;;5031903;28;20413;-61
2022/12/05 02:59:14;;;;;;;6.82;5.28;;;19.80;40.70;;;;;;5032063;28;20056;-61
2022/12/05 03:01:50;;;;;;;6.30;4.80;;;19.80;40.70;;;;;;5031993;28;20057;-61
2022/12/05 03:04:20;;;;;;;6.30;5.40;;;19.80;40.70;;;;;;5030406;28;20084;-61
2022/12/05 03:07:02;;;;;;;5.65;4.88;;;19.80;40.70;;;;;;5031531;28;20053;-61
2022/12/05 03:09:38;;;;;;;6.57;5.13;;;19.80;40.70;;;;;;5031253;28;20064;-62
2022/12/05 03:12:25;;;;;;;7.70;5.32;;;19.80;40.70;;;;;;5030375;28;20056;-61
2022/12/05 03:15:08;;;;;;;7.15;4.95;;;19.80;40.60;;;;;;5030320;28;20042;-61
2022/12/05 03:17:55;;;;;;;6.40;4.93;;;19.80;40.60;;;;;;5029665;28;20057;-61
2022/12/05 03:20:31;;;;;;;6.50;4.78;;;19.90;40.60;;;;;;5031057;28;20473;-61
2022/12/05 03:23:04;;;;;;;6.45;4.68;;;19.90;40.60;;;;;;5030180;28;20061;-61
2022/12/05 03:25:51;;;;;;;6.85;5.05;;;19.90;40.60;;;;;;5030466;28;20049;-61
2022/12/05 03:28:35;;;;;;;6.85;5.00;;;19.90;40.50;;;;;;5026292;28;20049;-61
2022/12/05 03:31:08;;;;;;;5.88;4.75;;;19.90;40.60;;;;;;5030977;28;20049;-61
2022/12/05 03:33:41;;;;;;;4.97;4.43;;;19.90;40.60;;;;;;5031098;28;20053;-61
2022/12/05 03:36:22;;;;;;;6.85;4.65;;;19.90;40.50;;;;;;5031274;28;20050;-60
2022/12/05 03:39:05;;;;;;;9.65;5.05;;;19.90;40.50;;;;;;5030847;28;20053;-61
2022/12/05 03:41:44;;;;;;;5.30;3.95;;;19.90;40.60;;;;;;5030686;28;20041;-61
2022/12/05 03:44:20;;;;;;;6.15;4.53;;;19.90;40.60;;;;;;5030714;28;20525;-60
2022/12/05 03:47:04;;;;;;;6.40;4.63;;;19.90;40.60;;;;;;5030714;28;20056;-61
2022/12/05 03:49:46;;;;;;;5.85;4.70;;;19.80;40.50;;;;;;5028622;28;20482;-61
2022/12/05 03:52:33;;;;;;;5.50;4.55;;;19.80;40.50;;;;;;5026367;28;20049;-61
2022/12/05 03:55:25;;;;;;;6.97;5.03;;;19.90;40.60;;;;;;5030605;28;20045;-61
2022/12/05 03:58:01;;;;;;;5.13;4.20;;;19.90;40.60;;;;;;5028668;28;20056;-61
2022/12/05 04:00:33;;;;;;;6.85;4.78;;;19.80;40.50;;;;;;5030438;28;20045;-61
2022/12/05 04:03:07;;;;;;;6.60;4.65;;;19.80;40.60;;;;;;5026536;28;20132;-61
2022/12/05 04:05:47;;;;;;;5.10;4.60;;;19.90;40.60;;;;;;5028477;28;20057;-61
2022/12/05 04:08:29;;;;;;;4.57;3.78;;;19.80;40.60;;;;;;5030088;28;20045;-60
2022/12/05 04:11:01;;;;;;;7.80;4.50;;;19.90;40.60;;;;;;5030346;28;20410;-61
2022/12/05 04:13:39;;;;;;;4.22;3.80;;;19.80;40.60;;;;;;5030414;28;20486;-60
2022/12/05 04:19:25;;;;;;;6.28;4.40;;;19.80;40.60;;;;;;5029388;28;20056;-61
2022/12/05 04:21:54;;;;;;;5.47;4.50;;;19.80;40.60;;;;;;5030410;28;20064;-61
2022/12/05 04:27:51;;;;;;;5.85;4.80;;;19.80;40.60;;;;;;5030334;28;20053;-61
2022/12/05 04:30:35;;;;;;;6.03;4.47;;;19.80;40.60;;;;;;5029469;28;20045;-61
2022/12/05 04:33:16;;;;;;;4.45;3.88;;;19.80;40.60;;;;;;5030124;28;20128;-61
2022/12/05 04:36:07;;;;;;;5.10;4.10;;;19.80;40.60;;;;;;5008555;28;20049;-61
2022/12/05 04:38:49;;;;;;;5.53;4.35;;;19.80;40.60;;;;;;5041320;28;20386;-61
2022/12/05 04:41:27;;;;;;;5.30;4.30;;;19.80;40.60;;;;;;5049862;28;20643;-61
2022/12/05 04:43:58;;;;;;;4.68;3.92;;;19.80;40.60;;;;;;5048622;28;20053;-61
2022/12/05 04:46:25;;;;;;;5.53;3.88;;;19.80;40.60;;;;;;5047752;28;20059;-61
2022/12/05 04:48:57;;;;;;;5.03;4.03;;;19.80;40.60;;;;;;5028897;28;20051;-61
2022/12/05 04:51:28;;;;;;;5.25;4.50;;;19.80;40.60;;;;;;5029765;28;20057;-61
2022/12/05 04:54:03;;;;;;;6.82;4.13;;;19.80;40.60;;;;;;5028765;28;20141;-61
2022/12/05 04:56:35;;;;;;;5.93;4.55;;;19.80;40.70;;;;;;5030032;28;20049;-61
2022/12/05 04:59:03;;;;;;;6.25;4.57;;;19.80;40.70;;;;;;5027588;28;20383;-61
2022/12/05 05:01:36;;;;;;;4.18;3.72;;;19.80;40.70;;;;;;5029547;28;20068;-61
2022/12/05 05:04:29;;;;;;;5.18;3.92;;;19.80;40.60;;;;;;5059949;28;20486;-60
2022/12/05 05:06:56;;;;;;;5.15;4.03;;;19.80;40.70;;;;;;5028911;28;20057;-61
2022/12/05 05:09:24;;;;;;;4.85;4.22;;;19.80;40.70;;;;;;5029826;28;20049;-61
2022/12/05 05:11:51;;;;;;;5.05;3.60;;;19.80;40.70;;;;;;5024922;28;20053;-61
2022/12/05 05:14:18;;;;;;;4.25;3.85;;;19.70;40.70;;;;;;5060983;28;20076;-61
2022/12/05 05:16:46;;;;;;;6.05;4.40;;;19.70;40.70;;;;;;5028769;28;20485;-61
2022/12/05 05:19:13;;;;;;;5.53;4.38;;;19.70;40.70;;;;;;5028875;28;20049;-61
2022/12/05 05:21:42;;;;;;;4.05;3.33;;;19.70;40.80;;;;;;5029459;28;20055;-61
2022/12/05 05:24:10;;;;;;;5.18;3.95;;;19.70;40.80;;;;;;5028402;28;20049;-61
2022/12/05 05:26:39;;;;;;;5.28;3.72;;;19.80;40.80;;;;;;5029207;28;20053;-61
2022/12/05 05:29:08;;;;;;;4.20;3.67;;;19.70;40.80;;;;;;5028823;28;20521;-61
2022/12/05 05:31:36;;;;;;;5.00;3.95;;;19.70;40.80;;;;;;5029287;28;20915;-61
2022/12/05 05:34:04;;;;;;;5.72;3.90;;;19.70;40.80;;;;;;5028691;28;20050;-61
2022/12/05 05:36:36;;;;;;;7.45;5.00;;;19.70;40.80;;;;;;5035496;28;20456;-61
2022/12/05 05:39:05;;;;;;;7.38;4.82;;;19.80;40.70;;;;;;5019246;28;20372;-61
2022/12/05 05:41:35;;;;;;;9.52;5.88;;;19.80;40.60;;;;;;5025651;28;20136;-61
2022/12/05 05:44:03;;;;;;;9.15;5.97;;;19.80;40.50;;;;;;5028350;28;20054;-61
2022/12/05 05:46:32;;;;;;;8.80;6.32;;;19.80;40.40;;;;;;5020007;28;20049;-61
2022/12/05 05:48:59;;;;;;;12.32;6.50;;;19.80;40.30;;;;;;5015936;28;20068;-61
2022/12/05 05:51:28;;;;;;;9.15;6.07;;;19.80;40.20;;;;;;5026576;28;20049;-61
2022/12/05 05:53:57;;;;;;;9.70;5.85;;;19.80;40.10;;;;;;5027548;28;20068;-62
2022/12/05 05:56:24;;;;;;;9.30;6.05;;;19.90;40.20;;;;;;5028036;28;20653;-61
2022/12/05 05:58:57;;;;;;;8.25;6.25;;;19.80;40.20;;;;;;5029058;28;20402;-61
2022/12/05 06:01:24;;;;;;;8.00;5.78;;;19.80;40.20;;;;;;5023814;28;20077;-61
2022/12/05 06:03:51;;;;;;;10.50;6.28;;;19.80;40.20;;;;;;5029187;28;20421;-61
2022/12/05 06:06:20;;;;;;;7.65;5.68;;;19.80;40.30;;;;;;5025755;28;20453;-61
2022/12/05 06:08:47;;;;;;;10.38;7.28;;;19.80;40.30;;;;;;5027391;28;20508;-61
2022/12/05 06:11:21;;;;;;;10.93;6.97;;;19.70;40.30;;;;;;5026512;28;20046;-61
2022/12/05 06:13:54;;;;;;;10.35;7.03;;;19.70;40.30;;;;;;5028268;28;20049;-61
2022/12/05 06:16:22;;;;;;;13.43;7.57;;;19.70;40.30;;;;;;5028645;28;20132;-61
2022/12/05 06:18:50;;;;;;;12.43;7.53;;;19.70;40.40;;;;;;5027605;28;20038;-61
2022/12/05 06:21:17;;;;;;;13.00;8.40;;;19.70;40.60;;;;;;5019487;28;20421;-62
2022/12/05 06:23:44;;;;;;;14.50;8.70;;;19.70;40.60;;;;;;5025068;28;20536;-62
2022/12/05 06:26:15;;;;;;;14.77;8.85;;;19.80;40.90;;;;;;5027716;28;20056;-61
2022/12/05 06:28:42;;;;;;;;;;;19.80;40.90;;;;;;5023953;28;20041;-61
2022/12/05 06:31:12;;;;;;;14.77;8.80;;;19.80;40.90;;;;;;5008445;28;19925;-62
2022/12/05 06:33:40;;;;;;;14.65;8.45;;;19.80;40.90;;;;;;5026532;28;20132;-62
2022/12/05 06:36:11;;;;;;;20.30;8.60;;;19.80;41.00;;;;;;5016537;28;20063;-61
2022/12/05 06:38:39;;;;;;;13.30;8.57;;;19.90;41.00;;;;;;5016008;28;20079;-61
2022/12/05 06:41:10;;;;;;;16.08;9.77;;;19.90;41.60;;;;;;5024462;28;20877;-61
2022/12/05 06:43:38;;;;;;;15.93;9.73;;;19.90;41.30;;;;;;5022040;28;20038;-61
2022/12/05 06:46:06;;;;;;;18.23;10.02;;;20.00;41.80;;;;;;5024881;28;20302;-66
2022/12/05 06:48:34;;;;;;;16.05;9.93;;;20.00;41.90;;;;;;5017828;28;20771;-61
2022/12/05 06:51:01;;;;;;;17.80;10.18;;;20.00;42.20;;;;;;5019621;28;20049;-62
2022/12/05 06:53:28;;;;;;;15.40;9.90;;;20.10;42.30;;;;;;5047055;28;20057;-63
2022/12/05 06:56:02;;;;;;;20.73;9.45;;;20.10;42.20;;;;;;5016995;28;20058;-63
2022/12/05 06:58:29;;;;;;;18.10;9.60;;;20.10;41.80;;;;;;5021561;28;20063;-64
2022/12/05 07:03:44;;;;;;;16.30;9.43;;;20.20;41.30;;;;;;5024987;28;20050;-63
2022/12/05 07:06:11;;;;;;;18.25;9.80;;;20.20;41.30;;;;;;5025856;28;20068;-65
2022/12/05 07:08:38;;;;;;;18.65;10.45;;;20.20;41.30;;;;;;5022674;28;20041;-63
2022/12/05 07:11:05;;;;;;;15.23;8.75;;;20.20;41.70;;;;;;5024701;28;20061;-68
2022/12/05 07:13:32;;;;;;;20.45;9.80;;;20.30;42.20;;;;;;5029188;28;20076;-65
2022/12/05 07:15:59;;;;;;;26.27;14.00;;;20.30;42.60;;;;;;5021775;28;20053;-67
2022/12/05 07:18:27;;;;;;;20.35;10.90;;;20.40;43.00;;;;;;5021138;28;20056;-64
2022/12/05 07:20:57;;;;;;;21.30;12.23;;;20.40;43.10;;;;;;5021291;28;20410;-62
2022/12/05 07:23:42;;;;;;;21.25;11.60;;;20.50;43.10;;;;;;5019755;28;20509;-63
2022/12/05 07:26:14;;;;;;;20.08;10.77;;;20.50;43.10;;;;;;5021447;28;20140;-61
2022/12/05 07:28:42;;;;;;;19.98;10.55;;;20.60;43.00;;;;;;5019401;28;20410;-61
2022/12/05 07:31:20;;;;;;;21.25;11.40;;;20.60;42.90;;;;;;5020959;28;20048;-63
2022/12/05 07:33:48;;;;;;;19.88;10.63;;;20.60;42.80;;;;;;5019115;28;20648;-61
2022/12/05 07:36:19;;;;;;;17.45;10.50;;;20.70;42.80;;;;;;5020987;28;20107;-63
2022/12/05 07:38:47;;;;;;;17.30;10.30;;;20.70;42.60;;;;;;5017893;28;20060;-62
2022/12/05 07:41:20;;;;;;;17.45;10.13;;;20.80;42.70;;;;;;5020434;28;20144;-62
2022/12/05 07:43:49;;;;;;;17.85;10.73;;;20.70;42.60;;;;;;5024027;28;20057;-63
2022/12/05 07:46:16;;;;;;;20.33;11.18;;;20.80;42.50;;;;;;5031573;28;20524;-61
2022/12/05 07:48:44;;;;;;;16.63;10.95;;;20.80;42.40;;;;;;5025315;28;20077;-64
2022/12/05 07:51:11;;;;;;;21.40;11.25;;;20.90;42.30;;;;;;5025740;28;20049;-62
2022/12/05 07:53:41;;;;;;;19.98;11.35;;;20.90;42.30;;;;;;5024337;28;20067;-65
2022/12/05 07:56:09;;;;;;;;;;;20.90;42.20;;;;;;5051600;28;20223;-65
2022/12/05 07:58:37;;;;;;;15.98;10.38;;;20.90;42.00;;;;;;5019928;28;19929;-62
2022/12/05 08:01:09;;;;;;;20.00;10.18;;;21.00;42.10;;;;;;5023729;28;20045;-64
2022/12/05 08:03:37;;;;;;;17.42;10.40;;;21.00;42.10;;;;;;5019538;28;20057;-63
2022/12/05 08:06:08;;;;;;;17.40;10.43;;;21.00;42.30;;;;;;5022415;28;20049;-62
2022/12/05 08:08:36;;;;;;;17.17;10.15;;;21.00;42.50;;;;;;5023161;28;20049;-63
2022/12/05 08:11:07;;;;;;;16.83;10.35;;;21.10;42.60;;;;;;5017525;28;20136;-64
2022/12/05 08:13:34;;;;;;;18.50;11.07;;;21.10;42.40;;;;;;5017814;28;20090;-64
2022/12/05 08:16:03;;;;;;;19.27;10.68;;;21.10;42.40;;;;;;5020046;28;20059;-63
2022/12/05 08:18:31;;;;;;;20.73;12.07;;;21.10;42.30;;;;;;5016209;28;20160;-64
2022/12/05 08:21:18;;;;;;;17.88;10.82;;;21.10;42.30;;;;;;5017026;28;20042;-64
2022/12/05 08:23:46;;;;;;;17.85;11.63;;;21.20;42.40;;;;;;5016293;28;20057;-63
2022/12/05 08:26:19;;;;;;;16.27;10.52;;;21.20;42.30;;;;;;5023726;28;20074;-63
2022/12/05 08:28:52;;;;;;;17.33;10.68;;;21.20;42.20;;;;;;5019141;28;20516;-66
2022/12/05 08:31:22;;;;;;;23.85;12.57;;;21.20;42.20;;;;;;5019763;28;20052;-65
2022/12/05 08:33:52;;;;;;;16.52;10.48;;;21.30;42.20;;;;;;5021543;28;20152;-63
2022/12/05 08:36:27;;;;;;;22.83;10.95;;;21.20;42.00;;;;;;5019114;28;20076;-63
2022/12/05 08:38:56;;;;;;;22.23;12.70;;;21.30;42.20;;;;;;5021378;28;20136;-66
2022/12/05 08:41:27;;;;;;;20.42;11.07;;;21.30;41.90;;;;;;5017307;28;20501;-65
2022/12/05 08:43:56;;;;;;;19.90;10.63;;;21.30;41.90;;;;;;5017592;28;20049;-63
2022/12/05 08:46:24;;;;;;;20.00;10.68;;;21.30;41.80;;;;;;5013338;28;20056;-62
2022/12/05 08:48:51;;;;;;;19.95;11.70;;;21.30;41.80;;;;;;5011637;28;20516;-65
2022/12/05 08:51:18;;;;;;;18.65;10.95;;;21.30;41.70;;;;;;5014512;28;20064;-63
2022/12/05 08:53:45;;;;;;;17.65;10.85;;;21.30;41.70;;;;;;5019021;28;20057;-63
2022/12/05 08:56:13;;;;;;;19.45;10.88;;;21.30;41.60;;;;;;5015520;28;20489;-63
2022/12/05 08:58:41;;;;;;;20.88;12.45;;;21.30;41.60;;;;;;5017835;28;20050;-65
2022/12/05 09:01:11;;;;;;;20.70;11.43;;;21.30;41.70;;;;;;5017583;28;20056;-63
2022/12/05 09:03:40;;;;;;;21.75;12.75;;;21.30;41.60;;;;;;5019392;28;20472;-63
2022/12/05 09:06:19;;;;;;;19.77;13.07;;;21.30;41.70;;;;;;5018526;28;20053;-63
2022/12/05 09:08:47;;;;;;;19.17;11.30;;;21.30;41.60;;;;;;5018180;28;20056;-65
2022/12/05 09:11:22;;;;;;;18.05;11.98;;;21.30;41.60;;;;;;5017852;28;21103;-63
2022/12/05 09:13:52;;;;;;;18.92;11.50;;;21.30;41.70;;;;;;5018315;28;20394;-64
2022/12/05 09:16:21;;;;;;;19.83;11.93;;;21.30;41.70;;;;;;5018819;28;20045;-66
2022/12/05 09:18:51;;;;;;;17.58;11.80;;;21.30;41.70;;;;;;5019889;28;20134;-63
2022/12/05 09:21:21;;;;;;;20.33;11.63;;;21.30;41.70;;;;;;5013515;28;20053;-64
2022/12/05 09:23:49;;;;;;;19.23;11.75;;;21.30;41.60;;;;;;5015115;28;20048;-62
2022/12/05 09:26:18;;;;;;;20.05;11.80;;;21.30;41.50;;;;;;5016382;28;20482;-63
2022/12/05 09:28:46;;;;;;;20.90;12.23;;;21.40;41.40;;;;;;5019385;28;20054;-65
2022/12/05 09:31:16;;;;;;;20.38;12.50;;;21.40;41.30;;;;;;5019451;28;20049;-62
2022/12/05 09:33:44;;;;;;;18.25;11.52;;;21.40;41.20;;;;;;5020010;28;20410;-63
2022/12/05 09:36:15;;;;;;;21.88;11.57;;;21.40;41.10;;;;;;5017827;28;20053;-65
2022/12/05 09:38:43;;;;;;;21.70;12.38;;;21.40;41.10;;;;;;5024179;28;20442;-64
2022/12/05 09:45:11;;;;;;;20.67;11.65;;;21.50;41.00;;;;;;5019396;28;20053;-64
2022/12/05 09:47:56;;;;;;;22.38;12.10;;;21.50;41.00;;;;;;5017956;28;20061;-65
2022/12/05 09:50:38;;;;;;;20.73;12.20;;;21.50;41.00;;;;;;5021679;28;20049;-65
2022/12/05 09:53:27;;;;;;;19.77;12.85;;;21.50;40.90;;;;;;5034925;28;20518;-65
2022/12/05 09:56:27;;;;;;;17.25;11.00;;;21.50;40.90;;;;;;5022226;28;20049;-65
2022/12/05 09:58:56;;;;;;;22.25;12.77;;;21.60;40.90;;;;;;5022768;28;20041;-65
2022/12/05 10:01:41;;;;;;;20.08;12.48;;;21.60;40.80;;;;;;5024450;28;20807;-65
2022/12/05 10:04:38;;;;;;;17.85;11.07;;;21.60;40.70;;;;;;5023569;28;20053;-64
2022/12/05 10:07:30;;;;;;;20.58;12.20;;;21.60;40.70;;;;;;5021574;28;20414;-63
2022/12/05 10:10:37;;;;;;;19.45;11.27;;;21.60;40.70;;;;;;5025116;28;20080;-64
2022/12/05 10:13:31;;;;;;;19.23;11.32;;;21.60;40.70;;;;;;5021646;28;20053;-63
2022/12/05 10:16:06;;;;;;;19.10;12.07;;;21.70;40.90;;;;;;5035430;28;20133;-64
2022/12/05 10:18:42;;;;;;;20.70;12.35;;;21.60;40.90;;;;;;5020806;28;20869;-62
2022/12/05 10:21:17;;;;;;;20.52;11.77;;;21.70;40.90;;;;;;5026095;28;20053;-62
2022/12/05 10:23:58;;;;;;;21.20;11.63;;;21.70;40.90;;;;;;5022483;28;20042;-62
2022/12/05 10:26:43;;;;;;;17.33;10.77;;;21.70;41.00;;;;;;5032670;28;20049;-64
2022/12/05 10:29:43;;;;;;;17.10;11.15;;;21.70;41.00;;;;;;5018616;28;20081;-62
2022/12/05 10:32:17;;;;;;;17.75;11.20;;;21.80;41.00;;;;;;5020716;28;20038;-64
2022/12/05 10:34:44;;;;;;;18.95;11.20;;;21.80;41.00;;;;;;5018572;28;20516;-62
2022/12/05 10:37:18;;;;;;;18.60;11.88;;;21.80;41.00;;;;;;5021567;28;20045;-63
2022/12/05 10:39:47;;;;;;;18.67;11.85;;;21.80;41.10;;;;;;5020071;28;20274;-63
2022/12/05 10:42:22;;;;;;;16.40;10.90;;;21.80;41.00;;;;;;5019866;28;20056;-63
2022/12/05 10:44:55;;;;;;;18.60;12.07;;;21.80;40.90;;;;;;5020180;28;20485;-61
2022/12/05 10:47:23;;;;;;;24.98;12.52;;;21.80;40.90;;;;;;5016538;28;20061;-60
2022/12/05 10:49:53;;;;;;;19.30;11.30;;;21.90;40.90;;;;;;5025126;28;20045;-62
2022/12/05 10:52:20;;;;;;;19.23;11.53;;;21.90;40.90;;;;;;5021933;28;20046;-63
2022/12/05 10:54:54;;;;;;;23.65;12.45;;;21.90;40.90;;;;;;5022954;28;20057;-67
2022/12/05 10:57:25;;;;;;;25.00;13.50;;;21.90;41.00;;;;;;5020329;28;20101;-68
2022/12/05 10:59:55;;;;;;;25.63;13.68;;;21.90;41.10;;;;;;5020934;28;20049;-66
2022/12/05 11:02:32;;;;;;;22.08;13.38;;;21.90;41.10;;;;;;5016196;28;20076;-66
2022/12/05 11:04:59;;;;;;;23.23;13.02;;;21.90;41.00;;;;;;5022442;28;20507;-65
2022/12/05 11:07:34;;;;;;;23.25;13.48;;;21.90;41.60;;;;;;5023637;28;20091;-63
2022/12/05 11:10:17;;;;;;;20.63;12.45;;;22.00;41.10;;;;;;5024368;28;20456;-65
2022/12/05 11:12:53;;;;;;;21.73;12.85;;;22.00;41.10;;;;;;5021774;28;20422;-65
2022/12/05 11:15:24;;;;;;;24.20;13.18;;;22.00;41.00;;;;;;5023471;28;20073;-64
2022/12/05 11:17:53;;;;;;;20.58;13.35;;;22.10;41.00;;;;;;5024014;28;20045;-66
2022/12/05 11:20:34;;;;;;;24.48;13.95;;;22.00;41.50;;;;;;5025588;28;20053;-66
2022/12/05 11:23:22;;;;;;;23.25;13.55;;;22.10;40.80;;;;;;5022661;28;20050;-66
2022/12/05 11:25:50;;;;;;;22.05;13.23;;;22.10;40.70;;;;;;5021810;28;20419;-67
2022/12/05 11:28:33;;;;;;;24.15;14.15;;;22.10;40.70;;;;;;5021739;28;20477;-66
2022/12/05 11:31:24;;;;;;;27.25;13.93;;;22.10;40.60;;;;;;5022967;28;20503;-67
2022/12/05 11:34:20;;;;;;;19.92;13.20;;;22.10;40.70;;;;;;5023068;28;20079;-66
2022/12/05 11:36:56;;;;;;;23.42;12.68;;;22.10;40.60;;;;;;5020430;28;20325;-65
2022/12/05 11:39:24;;;;;;;25.30;14.23;;;22.10;40.70;;;;;;5020428;28;20072;-69
2022/12/05 11:42:32;;;;;;;26.77;14.38;;;22.10;40.70;;;;;;5020866;28;20064;-65
2022/12/05 11:45:38;;;;;;;22.75;13.82;;;22.00;40.70;;;;;;5021011;28;20053;-66
2022/12/05 11:48:26;;;;;;;22.92;13.80;;;22.00;40.90;;;;;;5018185;28;20064;-66
2022/12/05 11:51:19;;;;;;;24.38;13.20;;;22.10;41.00;;;;;;5019693;28;20132;-65
2022/12/05 11:54:25;;;;;;;21.63;13.68;;;22.10;41.00;;;;;;5022855;28;20049;-64
2022/12/05 11:57:52;;;;;;;21.38;13.38;;;22.10;41.00;;;;;;5016044;28;20046;-63
2022/12/05 12:00:54;;;;;;;28.67;15.93;;;22.20;41.10;;;;;;5014645;28;20152;-66
2022/12/05 12:04:00;;;;;;;22.58;14.23;;;22.20;41.10;;;;;;5020283;28;20053;-64
2022/12/05 12:06:52;;;;;;;24.67;14.73;;;22.20;41.00;;;;;;5019613;28;20417;-63
2022/12/05 12:09:33;;;;;;;24.15;14.07;;;22.20;41.00;;;;;;5018089;28;20409;-63
2022/12/05 12:12:21;;;;;;;25.02;14.95;;;22.30;41.40;;;;;;5019455;28;20045;-64
2022/12/05 12:15:27;;;;;;;23.60;15.20;;;22.30;41.50;;;;;;5019233;28;20049;-63
2022/12/05 12:18:19;;;;;;;24.40;14.93;;;22.30;42.00;;;;;;5020167;28;20045;-65
2022/12/05 12:21:19;;;;;;;27.02;15.35;;;22.30;41.50;;;;;;5031645;28;20409;-63
2022/12/05 12:24:15;;;;;;;24.88;14.48;;;22.30;41.50;;;;;;5023712;28;20497;-66
2022/12/05 12:27:08;;;;;;;28.23;15.73;;;22.30;41.40;;;;;;5015326;28;20060;-66
2022/12/05 12:30:12;;;;;;;25.52;14.85;;;22.40;41.30;;;;;;5016176;28;20054;-63
2022/12/05 12:33:10;;;;;;;28.63;15.48;;;22.40;41.40;;;;;;5018527;28;20057;-66
2022/12/05 12:35:54;;;;;;;26.90;15.85;;;22.40;41.40;;;;;;5022157;28;20076;-64
2022/12/05 12:38:52;;;;;;;25.58;15.57;;;22.40;41.50;;;;;;5017179;28;20485;-63
2022/12/05 12:41:45;;;;;;;26.63;15.95;;;22.40;41.80;;;;;;5020275;28;20149;-64
2022/12/05 12:44:48;;;;;;;26.48;15.05;;;22.40;41.80;;;;;;5008473;28;20063;-70
2022/12/05 12:47:42;;;;;;;28.13;15.43;;;22.40;41.90;;;;;;5018118;28;20041;-61
2022/12/05 12:50:22;;;;;;;25.48;15.38;;;22.40;42.00;;;;;;5023298;28;20069;-64
2022/12/05 12:53:29;;;;;;;24.45;15.75;;;22.50;42.20;;;;;;5020253;28;20041;-62
2022/12/05 12:56:27;;;;;;;28.27;15.48;;;22.40;42.10;;;;;;5017204;28;20076;-62
2022/12/05 12:59:20;;;;;;;26.52;14.63;;;22.40;42.10;;;;;;5021077;28;20072;-61
2022/12/05 13:02:01;;;;;;;25.08;14.88;;;22.40;42.10;;;;;;5020270;28;20049;-64
2022/12/05 13:04:39;;;;;;;26.58;15.80;;;22.40;42.00;;;;;;5020574;28;20489;-62
2022/12/05 13:07:32;;;;;;;23.88;14.88;;;22.50;42.00;;;;;;5020877;28;20163;-61
2022/12/05 13:10:10;;;;;;;26.60;15.07;;;22.40;41.90;;;;;;5021025;28;20142;-61
2022/12/05 13:12:40;;;;;;;25.73;15.82;;;22.50;41.90;;;;;;5021568;28;20078;-62
2022/12/05 13:15:14;;;;;;;23.73;15.13;;;22.50;41.80;;;;;;5019599;28;20490;-64
2022/12/05 13:17:45;;;;;;;28.23;15.15;;;22.50;41.80;;;;;;5020382;28;20333;-61
2022/12/05 13:20:19;;;;;;;27.15;15.13;;;22.50;41.80;;;;;;5021017;28;20080;-62
2022/12/05 13:22:51;;;;;;;27.48;15.70;;;22.50;42.30;;;;;;5016981;28;20061;-60
2022/12/05 13:25:24;;;;;;;25.50;14.48;;;22.50;41.80;;;;;;5018797;28;20482;-60
2022/12/05 13:27:59;;;;;;;25.50;15.70;;;22.50;41.90;;;;;;5019342;28;20050;-64
2022/12/05 13:30:27;;;;;;;25.73;15.88;;;22.50;41.90;;;;;;5023648;28;20133;-63
2022/12/05 13:32:57;;;;;;;23.73;14.85;;;22.50;41.80;;;;;;5022458;28;20077;-62
2022/12/05 13:44:11;;;;;;;29.23;16.60;;;22.50;42.00;;;;;;5023189;28;20084;-61